Athens, West Virginia
Current Conditions -  °F | °C
As of 7:52 AM on Friday 24 Oct 2014 (Local Time) from KBLF Reporting Station
Clear Clear  
Wind Chill:   Ceiling: Unl
Heat Index:   Visibility: 9mi
Dew Point:   Wind: 5mph
Humidity: 89%   Direction: 240°WSW
Pressure: 30.11"   Gusts: NA
Location:  37.42°N, 81.02°W
Report Text: KBLF 241152Z AUTO 24004KT 9SM CLR 04/02 A3011 RMK AO2 SLP197 T00390022 10050 20033 55000
Loading
Personal Weather Stations






























Interactive Weather Map
Tropical Storm Tracking
New forecast layout! Learn more

10-Day Weather Forecast

Advertisements
Track Severe Weather on mobile